Decoded Metar for PATK (TALKEETNA in AK, USA) (IATA:TKA) | Meteo·Mobile Aviation Weather
aviador You're here:

PATK Decoded Metar

TALKEETNA in AK, USA
Report Time2018-12-13 03:53:00
UTC Time2018-12-13 04:29:53
Flight Rules mvfr MVFR
WindCalm
Visibility6437 m
Phenomena:Light Snow
Mist
Clouds:Overcast 048 Hf
Expected CloudBase > 400 ft AGL from Temp-Dew spread
Ceiling4,800 ft
Temp-7°C (ISA -21)
Dew Point-8°C (93% RH)
AAT-9.9°C
QNH987 hPa
Density Alt-1,335 ft
Elevation358 ft
Report Wrong Elevation
Raw Report
PATK 130353Z AUTO 00000KT 4SM -SN BR OVC048 M07/M08 A2915 RMK AO2
SNB13 SLP878 P0000 T10671078 TSNO=

Extra information for PATK:More info

Metar Taf Metar & Taf Last 4 Metars F.Rules Stats Wind Profile Meteogram Temp Stats Airport Information Weather charts Add Link Nearby VenuesMetar ALERT Operation Metar Decoded Social comments

AIRNAV info for PATK